createdAt,value
2023-01-17T00:02:16.574Z,85.54
2023-01-17T00:05:02.347Z,85.43
2023-01-17T00:07:48.196Z,85.32
2023-01-17T00:10:23.594Z,85.57
2023-01-17T00:12:57.490Z,85.18
2023-01-17T00:15:25.991Z,85.17
2023-01-17T00:17:53.669Z,85.29
2023-01-17T00:20:56.591Z,85.01
2023-01-17T00:24:00.972Z,85.36
2023-01-17T00:26:28.032Z,84.98
2023-01-17T00:28:54.899Z,85.22
2023-01-17T00:31:21.789Z,85.10
2023-01-17T00:33:48.670Z,85.50
2023-01-17T00:36:15.569Z,85.12
2023-01-17T00:38:42.420Z,84.93
2023-01-17T00:41:14.639Z,85.20
2023-01-17T00:44:00.224Z,84.87
2023-01-17T00:46:45.602Z,84.60
2023-01-17T00:49:31.494Z,84.60
2023-01-17T00:52:16.787Z,84.60
2023-01-17T00:55:02.086Z,84.70
2023-01-17T00:57:48.088Z,84.66
2023-01-17T01:00:35.626Z,84.84
2023-01-17T01:03:28.488Z,84.63
2023-01-17T01:06:13.615Z,84.82
2023-01-17T01:08:58.929Z,84.74
2023-01-17T01:11:44.234Z,84.85
2023-01-17T01:14:29.773Z,84.94
2023-01-17T01:17:15.031Z,84.73
2023-01-17T01:20:00.203Z,84.67
2023-01-17T01:22:46.028Z,84.69
2023-01-17T01:25:31.232Z,84.68
2023-01-17T01:28:31.072Z,84.77
2023-01-17T01:31:23.506Z,84.53
2023-01-17T01:33:52.152Z,84.79
2023-01-17T01:36:19.571Z,84.76
2023-01-17T01:38:46.549Z,84.71
2023-01-17T01:41:13.494Z,84.52
2023-01-17T01:43:47.315Z,84.92
2023-01-17T01:46:20.169Z,84.77
2023-01-17T01:49:04.438Z,84.65
2023-01-17T01:51:39.903Z,85.45
2023-01-17T01:54:25.521Z,84.64
2023-01-17T01:56:54.566Z,84.84
2023-01-17T01:59:23.463Z,84.85
2023-01-17T02:01:53.269Z,84.80
2023-01-17T02:04:21.575Z,85.15
2023-01-17T02:06:53.279Z,84.98
2023-01-17T02:09:20.743Z,85.13
2023-01-17T02:11:49.873Z,84.88
2023-01-17T02:14:19.205Z,84.83
2023-01-17T02:17:35.470Z,84.53
2023-01-17T02:20:58.564Z,84.55
2023-01-17T02:24:06.486Z,84.80
2023-01-17T02:26:45.858Z,84.61
2023-01-17T02:29:47.553Z,84.61
2023-01-17T02:32:58.940Z,84.78
2023-01-17T02:35:33.896Z,84.89
2023-01-17T02:38:17.569Z,84.86
2023-01-17T02:41:01.479Z,84.65
2023-01-17T02:43:29.195Z,84.88
2023-01-17T02:45:56.179Z,84.84
2023-01-17T02:48:27.925Z,84.70
2023-01-17T02:51:52.301Z,84.71
2023-01-17T02:54:56.392Z,84.83
2023-01-17T02:58:07.123Z,84.61
2023-01-17T03:01:16.138Z,84.57
2023-01-17T03:03:53.322Z,84.65
2023-01-17T03:06:35.045Z,84.67
2023-01-17T03:09:02.753Z,84.80
2023-01-17T03:11:29.786Z,85.01
2023-01-17T03:13:57.654Z,85.33
2023-01-17T03:16:28.518Z,85.14
2023-01-17T03:18:55.498Z,85.01
2023-01-17T03:21:23.629Z,85.06
2023-01-17T03:23:50.799Z,85.08
2023-01-17T03:26:18.049Z,84.84
2023-01-17T03:28:45.017Z,84.44
2023-01-17T03:31:17.000Z,84.24
2023-01-17T03:33:43.958Z,84.58
2023-01-17T03:36:11.920Z,84.59
2023-01-17T03:38:39.070Z,84.46
2023-01-17T03:41:06.684Z,84.60
2023-01-17T03:43:33.679Z,84.32
2023-01-17T03:46:07.106Z,84.33
2023-01-17T03:48:34.345Z,84.08
2023-01-17T03:51:01.255Z,84.29
2023-01-17T03:53:28.142Z,84.42
2023-01-17T03:55:55.122Z,84.34
2023-01-17T03:58:22.066Z,84.24
2023-01-17T04:00:49.009Z,84.22
2023-01-17T04:03:15.914Z,84.21
2023-01-17T04:05:42.862Z,84.25
2023-01-17T04:08:09.755Z,84.29
2023-01-17T04:10:36.689Z,84.09
2023-01-17T04:13:03.655Z,84.13
2023-01-17T04:15:30.665Z,84.38
2023-01-17T04:17:58.192Z,84.08
2023-01-17T04:20:38.935Z,84.24
2023-01-17T04:23:06.878Z,84.95
2023-01-17T04:25:34.416Z,84.76
2023-01-17T04:28:04.200Z,85.04
2023-01-17T04:30:33.025Z,85.24
2023-01-17T04:33:00.134Z,84.98
2023-01-17T04:35:28.977Z,84.69
2023-01-17T04:37:55.863Z,84.93
2023-01-17T04:40:23.122Z,84.88
2023-01-17T04:42:51.189Z,84.90
2023-01-17T04:45:18.159Z,84.72
2023-01-17T04:47:45.079Z,84.97
2023-01-17T04:50:12.559Z,84.97
2023-01-17T04:52:39.612Z,84.79
2023-01-17T04:55:07.784Z,84.92
2023-01-17T04:57:34.694Z,84.88
2023-01-17T05:00:01.766Z,84.66
2023-01-17T05:02:28.705Z,84.80
2023-01-17T05:04:55.647Z,84.93
2023-01-17T05:07:22.538Z,84.92
2023-01-17T05:09:49.437Z,85.28
2023-01-17T05:12:16.376Z,85.04
2023-01-17T05:14:43.283Z,85.12
2023-01-17T05:17:11.182Z,84.60
2023-01-17T05:19:38.295Z,85.05
2023-01-17T05:22:15.035Z,84.87
2023-01-17T05:24:47.585Z,85.02
2023-01-17T05:27:15.771Z,84.88
2023-01-17T05:29:43.111Z,85.16
2023-01-17T05:32:10.121Z,84.65
2023-01-17T05:34:37.135Z,85.01
2023-01-17T05:37:04.132Z,84.86
2023-01-17T05:39:31.393Z,84.85
2023-01-17T05:41:59.594Z,85.03
2023-01-17T05:44:27.593Z,84.83
2023-01-17T05:46:55.140Z,84.60
2023-01-17T05:49:22.046Z,84.56
2023-01-17T05:51:48.967Z,84.61
2023-01-17T05:54:16.014Z,84.55
2023-01-17T05:56:42.919Z,84.33
2023-01-17T05:59:11.095Z,84.56
2023-01-17T06:01:39.506Z,84.26
2023-01-17T06:04:06.409Z,84.26
2023-01-17T06:06:33.323Z,84.37
2023-01-17T06:09:00.256Z,84.53
2023-01-17T06:11:27.154Z,84.27
2023-01-17T06:13:54.065Z,84.45
2023-01-17T06:16:21.066Z,84.30
2023-01-17T06:18:48.056Z,84.41
2023-01-17T06:21:14.979Z,84.05
2023-01-17T06:23:41.936Z,84.38
2023-01-17T06:26:10.341Z,84.75
2023-01-17T06:28:37.370Z,84.50
2023-01-17T06:31:09.210Z,84.68
2023-01-17T06:33:36.347Z,84.61
2023-01-17T06:36:03.782Z,84.35
2023-01-17T06:38:30.867Z,84.27
2023-01-17T06:41:00.243Z,84.09
2023-01-17T06:43:28.595Z,84.27
2023-01-17T06:45:55.583Z,84.23
2023-01-17T06:48:22.510Z,84.30
2023-01-17T06:50:49.811Z,84.21
2023-01-17T06:53:16.946Z,84.22
2023-01-17T06:55:43.924Z,84.15
2023-01-17T06:58:10.830Z,84.25
2023-01-17T07:00:40.470Z,84.09
2023-01-17T07:03:26.179Z,83.99
2023-01-17T07:05:53.363Z,84.07
2023-01-17T07:08:20.635Z,83.95
2023-01-17T07:10:48.901Z,84.08
2023-01-17T07:13:15.830Z,84.21
2023-01-17T07:15:42.785Z,84.11
2023-01-17T07:18:09.680Z,83.93
2023-01-17T07:20:38.295Z,83.94
2023-01-17T07:23:06.641Z,84.01
2023-01-17T07:25:33.546Z,83.97
2023-01-17T07:28:00.493Z,83.97
2023-01-17T07:30:27.623Z,84.24
2023-01-17T07:32:55.160Z,84.13
2023-01-17T07:35:26.585Z,84.52
2023-01-17T07:37:54.661Z,84.38
2023-01-17T07:40:22.732Z,84.19
2023-01-17T07:42:49.797Z,83.86
2023-01-17T07:45:17.272Z,84.00
2023-01-17T07:47:44.657Z,84.09
2023-01-17T07:50:11.864Z,84.35
2023-01-17T07:52:38.863Z,84.07
2023-01-17T07:55:06.691Z,84.04
2023-01-17T07:57:33.588Z,83.90
2023-01-17T08:00:00.590Z,83.89
2023-01-17T08:02:27.495Z,83.73
2023-01-17T08:04:54.550Z,83.94
2023-01-17T08:07:21.490Z,83.80
2023-01-17T08:09:50.048Z,83.79
2023-01-17T08:12:17.364Z,84.32
2023-01-17T08:14:44.830Z,84.03
2023-01-17T08:17:14.993Z,84.06
2023-01-17T08:19:42.072Z,84.03
2023-01-17T08:22:09.172Z,84.13
2023-01-17T08:24:36.084Z,84.04
2023-01-17T08:27:03.099Z,84.33
2023-01-17T08:29:30.151Z,84.47
2023-01-17T08:31:57.171Z,84.28
2023-01-17T08:34:24.105Z,84.49
2023-01-17T08:36:53.894Z,84.49
2023-01-17T08:39:21.805Z,84.63
2023-01-17T08:41:48.761Z,84.59
2023-01-17T08:44:15.785Z,84.59
2023-01-17T08:46:44.080Z,84.51
2023-01-17T08:49:11.815Z,84.93
2023-01-17T08:51:38.762Z,84.69
2023-01-17T08:54:05.903Z,84.50
2023-01-17T08:56:32.901Z,84.84
2023-01-17T08:58:59.800Z,84.78
2023-01-17T09:01:26.760Z,85.18
2023-01-17T09:03:53.842Z,85.04
2023-01-17T09:06:20.811Z,85.11
2023-01-17T09:08:49.465Z,85.24
2023-01-17T09:11:17.846Z,85.39
2023-01-17T09:13:45.012Z,85.75
2023-01-17T09:16:12.124Z,85.79
2023-01-17T09:18:39.148Z,85.81
2023-01-17T09:21:14.878Z,85.53
2023-01-17T09:23:42.662Z,85.70
2023-01-17T09:26:23.443Z,86.10
2023-01-17T09:28:51.089Z,86.10
2023-01-17T09:31:20.683Z,86.29
2023-01-17T09:33:49.995Z,86.11
2023-01-17T09:36:17.840Z,86.37
2023-01-17T09:38:45.088Z,86.33
2023-01-17T09:41:31.212Z,86.04
2023-01-17T09:44:26.196Z,85.92
2023-01-17T09:47:00.108Z,85.69
2023-01-17T09:49:47.103Z,86.10
2023-01-17T09:52:18.290Z,86.17
2023-01-17T09:54:48.984Z,86.03
2023-01-17T09:57:42.764Z,85.87
2023-01-17T10:00:54.355Z,86.07
2023-01-17T10:03:55.733Z,86.26
2023-01-17T10:06:44.448Z,86.23
2023-01-17T10:09:27.714Z,86.44
2023-01-17T10:12:24.751Z,86.17
2023-01-17T10:15:46.050Z,86.29
2023-01-17T10:18:47.912Z,86.11
2023-01-17T10:21:45.956Z,86.63
2023-01-17T10:24:38.723Z,86.05
2023-01-17T10:27:19.753Z,86.10
2023-01-17T10:29:49.540Z,85.95
2023-01-17T10:32:16.756Z,86.35
2023-01-17T10:34:50.054Z,86.07
2023-01-17T10:37:28.378Z,86.00
2023-01-17T10:40:02.391Z,86.28
2023-01-17T10:43:04.795Z,85.92
2023-01-17T10:45:43.327Z,86.23
2023-01-17T10:48:43.662Z,86.39
2023-01-17T10:51:21.827Z,86.34
2023-01-17T10:54:36.884Z,86.13
2023-01-17T10:57:04.056Z,86.24
2023-01-17T10:59:38.032Z,86.47
2023-01-17T11:02:25.892Z,86.33
2023-01-17T11:04:55.641Z,86.53
2023-01-17T11:07:28.489Z,86.37
2023-01-17T11:09:57.689Z,86.61
2023-01-17T11:12:45.688Z,86.53
2023-01-17T11:15:12.447Z,86.85
2023-01-17T11:17:52.820Z,86.67
2023-01-17T11:20:39.694Z,86.93
2023-01-17T11:23:21.163Z,87.08
2023-01-17T11:26:02.656Z,87.47
2023-01-17T11:28:32.938Z,88.04
2023-01-17T11:31:07.498Z,87.88
2023-01-17T11:33:53.875Z,87.44
2023-01-17T11:36:32.586Z,87.70
2023-01-17T11:39:21.372Z,87.81
2023-01-17T11:41:48.751Z,87.51
2023-01-17T11:44:32.119Z,87.82
2023-01-17T11:47:14.112Z,87.16
2023-01-17T11:49:43.964Z,86.64
2023-01-17T11:52:38.971Z,87.14
2023-01-17T11:55:06.366Z,86.56
2023-01-17T11:57:35.867Z,86.52
2023-01-17T12:00:28.453Z,86.82
2023-01-17T12:03:17.180Z,86.41
2023-01-17T12:06:13.505Z,86.58
2023-01-17T12:09:00.531Z,85.71
2023-01-17T12:12:20.541Z,86.85
2023-01-17T12:15:12.007Z,87.36
2023-01-17T12:18:19.816Z,87.44
2023-01-17T12:21:15.479Z,87.71
2023-01-17T12:24:00.703Z,87.88
2023-01-17T12:26:42.647Z,87.67
2023-01-17T12:29:49.192Z,86.94
2023-01-17T12:33:04.392Z,86.41
2023-01-17T12:35:50.707Z,86.83
2023-01-17T12:38:32.750Z,86.98
2023-01-17T12:41:16.428Z,86.95
2023-01-17T12:43:44.692Z,85.65
2023-01-17T12:46:44.085Z,85.85
2023-01-17T12:49:38.747Z,86.92
2023-01-17T12:52:48.861Z,88.62
2023-01-17T12:56:16.563Z,87.87
2023-01-17T12:58:50.999Z,86.85
2023-01-17T13:01:31.269Z,87.83
2023-01-17T13:04:28.500Z,88.38
2023-01-17T13:07:55.787Z,89.39
2023-01-17T13:10:44.292Z,88.91
2023-01-17T13:13:24.092Z,88.48
2023-01-17T13:15:55.623Z,88.84
2023-01-17T13:18:26.168Z,88.80
2023-01-17T13:21:17.697Z,89.45
2023-01-17T13:23:59.279Z,86.33
2023-01-17T13:26:41.339Z,86.97
2023-01-17T13:29:58.148Z,87.53
2023-01-17T13:33:07.179Z,86.03
2023-01-17T13:35:42.602Z,86.96
2023-01-17T13:38:57.395Z,86.77
2023-01-17T13:42:15.180Z,85.45
2023-01-17T13:44:42.375Z,85.68
2023-01-17T13:47:18.563Z,85.69
2023-01-17T13:49:49.421Z,86.39
2023-01-17T13:52:19.201Z,86.04
2023-01-17T13:54:58.453Z,85.30
2023-01-17T13:57:32.835Z,85.01
2023-01-17T14:00:22.183Z,84.13
2023-01-17T14:02:51.448Z,85.28
2023-01-17T14:05:21.259Z,85.65
2023-01-17T14:08:02.306Z,86.19
2023-01-17T14:10:45.145Z,86.75
2023-01-17T14:13:44.384Z,85.88
2023-01-17T14:16:28.889Z,86.18
2023-01-17T14:18:56.337Z,86.24
2023-01-17T14:21:28.604Z,86.28
2023-01-17T14:24:21.829Z,85.25
2023-01-17T14:27:12.021Z,86.00
2023-01-17T14:30:01.670Z,85.96
2023-01-17T14:32:37.951Z,86.09
2023-01-17T14:35:06.343Z,86.11
2023-01-17T14:37:42.661Z,85.77
2023-01-17T14:40:30.379Z,86.04
2023-01-17T14:43:11.079Z,85.87
2023-01-17T14:45:39.501Z,85.65
2023-01-17T14:48:21.727Z,85.71
2023-01-17T14:50:52.008Z,85.37
2023-01-17T14:53:28.498Z,85.25
2023-01-17T14:56:02.296Z,85.64
2023-01-17T14:58:34.942Z,85.42
2023-01-17T15:01:12.248Z,84.89
2023-01-17T15:03:52.731Z,85.42
2023-01-17T15:06:40.726Z,85.31
2023-01-17T15:09:23.781Z,84.97
2023-01-17T15:11:52.970Z,84.58
2023-01-17T15:14:34.637Z,83.86
2023-01-17T15:17:26.676Z,84.65
2023-01-17T15:20:06.238Z,84.76
2023-01-17T15:22:33.628Z,84.65
2023-01-17T15:25:01.007Z,84.56
2023-01-17T15:27:28.431Z,84.80
2023-01-17T15:30:01.305Z,84.53
2023-01-17T15:32:31.156Z,84.58
2023-01-17T15:34:59.291Z,84.26
2023-01-17T15:37:36.472Z,84.14
2023-01-17T15:40:18.538Z,84.42
2023-01-17T15:42:51.488Z,83.85
2023-01-17T15:45:31.421Z,83.98
2023-01-17T15:48:18.785Z,83.54
2023-01-17T15:50:45.735Z,83.70
2023-01-17T15:53:35.668Z,83.95
2023-01-17T15:56:32.490Z,83.90
2023-01-17T15:59:29.186Z,83.67
2023-01-17T16:01:57.669Z,83.84
2023-01-17T16:04:37.192Z,83.63
2023-01-17T16:07:22.837Z,83.46
2023-01-17T16:09:50.089Z,83.45
2023-01-17T16:12:17.032Z,83.25
2023-01-17T16:15:02.466Z,83.36
2023-01-17T16:17:31.695Z,83.38
2023-01-17T16:19:59.105Z,83.01
2023-01-17T16:22:26.876Z,83.25
2023-01-17T16:24:57.226Z,83.39
2023-01-17T16:27:24.159Z,83.29
2023-01-17T16:29:51.159Z,83.14
2023-01-17T16:32:18.086Z,82.72
2023-01-17T16:34:45.007Z,83.13
2023-01-17T16:37:11.899Z,82.97
2023-01-17T16:39:39.641Z,83.17
2023-01-17T16:42:06.533Z,83.15
2023-01-17T16:44:33.532Z,82.93
2023-01-17T16:47:01.693Z,83.18
2023-01-17T16:49:32.424Z,83.11
2023-01-17T16:51:59.602Z,82.44
2023-01-17T16:54:27.394Z,82.79
2023-01-17T16:56:54.330Z,82.50
2023-01-17T16:59:22.024Z,82.48
2023-01-17T17:01:50.418Z,82.69
2023-01-17T17:04:17.477Z,82.72
2023-01-17T17:06:44.504Z,82.60
2023-01-17T17:09:11.443Z,82.60
2023-01-17T17:11:38.450Z,82.37
2023-01-17T17:14:05.390Z,82.47
2023-01-17T17:16:32.905Z,82.03
2023-01-17T17:19:06.338Z,82.29
2023-01-17T17:21:35.559Z,82.27
2023-01-17T17:24:03.303Z,82.33
2023-01-17T17:26:34.808Z,81.74
2023-01-17T17:29:06.655Z,82.18
2023-01-17T17:31:33.591Z,81.88
2023-01-17T17:34:07.375Z,81.82
2023-01-17T17:36:34.854Z,82.34
2023-01-17T17:39:04.276Z,82.18
2023-01-17T17:41:33.964Z,82.31
2023-01-17T17:44:03.222Z,82.01
2023-01-17T17:46:31.068Z,82.40
2023-01-17T17:48:58.756Z,81.88
2023-01-17T17:51:28.122Z,82.14
2023-01-17T17:54:00.857Z,81.99
2023-01-17T17:56:33.111Z,82.07
2023-01-17T17:59:05.370Z,82.16
2023-01-17T18:01:32.521Z,82.30
2023-01-17T18:04:09.799Z,82.02
2023-01-17T18:06:39.756Z,82.02
2023-01-17T18:09:11.073Z,81.85
2023-01-17T18:11:43.095Z,81.54
2023-01-17T18:14:17.899Z,81.97
2023-01-17T18:16:47.952Z,81.84
2023-01-17T18:19:23.262Z,82.02
2023-01-17T18:21:52.358Z,82.20
2023-01-17T18:24:28.439Z,81.82
2023-01-17T18:26:57.907Z,81.97
2023-01-17T18:29:27.904Z,82.10
2023-01-17T18:31:58.696Z,81.69
2023-01-17T18:34:29.721Z,81.78
2023-01-17T18:36:59.854Z,81.94
2023-01-17T18:39:30.078Z,81.70
2023-01-17T18:41:58.080Z,81.66
2023-01-17T18:44:27.918Z,81.97
2023-01-17T18:47:02.035Z,81.92
2023-01-17T18:49:29.577Z,82.02
2023-01-17T18:51:57.027Z,82.07
2023-01-17T18:54:25.294Z,82.01
2023-01-17T18:56:56.232Z,81.85
2023-01-17T18:59:29.633Z,81.62
2023-01-17T19:01:58.777Z,81.48
2023-01-17T19:04:28.507Z,81.25
2023-01-17T19:06:55.590Z,81.68
2023-01-17T19:09:22.614Z,81.89
2023-01-17T19:11:49.973Z,81.59
2023-01-17T19:14:16.966Z,81.56
2023-01-17T19:16:43.927Z,81.78
2023-01-17T19:19:14.501Z,81.78
2023-01-17T19:21:41.456Z,81.68
2023-01-17T19:24:12.931Z,81.72
2023-01-17T19:26:40.224Z,81.68
2023-01-17T19:29:07.166Z,81.91
2023-01-17T19:31:43.151Z,82.09
2023-01-17T19:34:13.563Z,81.86
2023-01-17T19:36:40.759Z,81.97
2023-01-17T19:39:12.455Z,81.78
2023-01-17T19:41:45.216Z,81.73
2023-01-17T19:44:14.418Z,81.89
2023-01-17T19:46:41.494Z,81.84
2023-01-17T19:49:09.156Z,81.58
2023-01-17T19:51:37.064Z,81.83
2023-01-17T19:54:06.403Z,81.49
2023-01-17T19:56:33.482Z,81.58
2023-01-17T19:59:01.673Z,81.83
2023-01-17T20:01:33.172Z,81.57
2023-01-17T20:04:02.260Z,81.84
2023-01-17T20:06:34.408Z,81.80
2023-01-17T20:09:02.572Z,81.55
2023-01-17T20:11:29.677Z,81.74
2023-01-17T20:13:59.098Z,81.98
2023-01-17T20:16:29.020Z,82.06
2023-01-17T20:18:57.312Z,81.86
2023-01-17T20:21:27.352Z,82.02
2023-01-17T20:23:56.040Z,82.06
2023-01-17T20:26:34.616Z,82.07
2023-01-17T20:29:10.689Z,82.05
2023-01-17T20:31:39.316Z,81.67
2023-01-17T20:34:11.436Z,81.98
2023-01-17T20:36:39.848Z,82.09
2023-01-17T20:39:08.679Z,81.98
2023-01-17T20:41:38.596Z,81.82
2023-01-17T20:44:08.903Z,82.08
2023-01-17T20:46:40.956Z,81.75
2023-01-17T20:49:16.695Z,81.78
2023-01-17T20:51:45.333Z,82.26
2023-01-17T20:54:15.831Z,82.02
2023-01-17T20:56:43.262Z,82.19
2023-01-17T20:59:16.932Z,81.99
2023-01-17T21:01:44.582Z,81.98
2023-01-17T21:04:12.847Z,81.87
2023-01-17T21:06:44.139Z,82.08
2023-01-17T21:09:14.435Z,82.07
2023-01-17T21:11:41.403Z,82.33
2023-01-17T21:14:08.607Z,82.56
2023-01-17T21:16:35.939Z,82.20
2023-01-17T21:19:03.181Z,82.25
2023-01-17T21:21:30.437Z,82.25
2023-01-17T21:23:59.233Z,81.95
2023-01-17T21:26:28.217Z,82.55
2023-01-17T21:28:55.764Z,82.56
2023-01-17T21:31:33.451Z,82.14
2023-01-17T21:34:07.270Z,82.21
2023-01-17T21:36:37.927Z,83.29
2023-01-17T21:39:11.012Z,83.19
2023-01-17T21:41:41.023Z,82.25
2023-01-17T21:44:15.280Z,82.42
2023-01-17T21:46:42.335Z,82.04
2023-01-17T21:49:11.750Z,82.05
2023-01-17T21:51:52.683Z,83.10
2023-01-17T21:54:45.313Z,82.54
2023-01-17T21:57:39.615Z,82.66
2023-01-17T22:00:15.996Z,82.59
2023-01-17T22:02:45.251Z,82.83
2023-01-17T22:05:13.228Z,82.73
2023-01-17T22:07:40.669Z,82.27
2023-01-17T22:10:08.326Z,82.01
2023-01-17T22:12:35.237Z,82.32
2023-01-17T22:15:02.240Z,82.33
2023-01-17T22:17:30.551Z,82.22
2023-01-17T22:19:57.492Z,82.52
2023-01-17T22:22:24.427Z,82.19
2023-01-17T22:24:51.386Z,82.09
2023-01-17T22:27:19.814Z,82.15
2023-01-17T22:29:46.708Z,82.23
2023-01-17T22:32:13.671Z,82.25
2023-01-17T22:34:40.632Z,82.23
2023-01-17T22:37:10.012Z,82.20
2023-01-17T22:39:38.567Z,82.22
2023-01-17T22:42:06.538Z,82.44
2023-01-17T22:44:33.698Z,82.25
2023-01-17T22:47:00.611Z,82.31
2023-01-17T22:49:27.501Z,82.06
2023-01-17T22:51:54.445Z,82.18
2023-01-17T22:54:22.311Z,82.18
2023-01-17T22:56:49.217Z,82.10
2023-01-17T22:59:16.260Z,82.29
2023-01-17T23:01:43.200Z,82.31
2023-01-17T23:04:14.361Z,82.52
2023-01-17T23:06:41.961Z,81.81
2023-01-17T23:09:15.236Z,81.94
2023-01-17T23:11:47.068Z,81.89
2023-01-17T23:14:54.196Z,81.98
2023-01-17T23:17:44.246Z,82.20
2023-01-17T23:20:12.181Z,82.34
2023-01-17T23:22:39.081Z,82.21
2023-01-17T23:25:12.229Z,82.08
2023-01-17T23:28:01.663Z,82.38
2023-01-17T23:30:36.163Z,82.13
2023-01-17T23:33:12.149Z,81.83
2023-01-17T23:35:42.671Z,82.47
2023-01-17T23:38:28.959Z,82.30
2023-01-17T23:41:24.944Z,82.18
2023-01-17T23:43:58.593Z,82.17
2023-01-17T23:46:27.108Z,82.51
2023-01-17T23:48:55.070Z,82.48
2023-01-17T23:51:22.607Z,82.19
2023-01-17T23:53:52.081Z,82.43
2023-01-17T23:56:22.995Z,82.18
2023-01-17T23:58:50.386Z,82.22
